Orlando International Airport Orlando US
ICAO: KMCO
IATA: MCO
Category: Large
Scheduled Services: Yes

Elevation: 96 ft
TransAlt. 18000 ft.

Airport Communications:
APP/DEP:119.4
ATIS:121.25
CLNC DEL:134.7
GND:121.8
AR OPS:41.5
ST PETERSBURG RDO:122.1
ST PETERSBURG RDO:122.2
TWR:118.45
UNICOM:122.95

KMCO Zoom In..

If Map Doesn't Load, Click Here

Runways:

(A) RW 17L length 9001 ft width 150 ft
ILS 110.95 / hdg 185

(B) RW 17R length 10000 ft width 150 ft
ILS 111.75 / hdg 185

(C) RW 18L length 12005 ft width 200 ft
---- / hdg 185

(D) RW 18R length 12005 ft width 200 ft
ILS 111.90 / hdg 185

(E) RW 35L length 10000 ft width 150 ft
ILS 110.50 / hdg 5

(F) RW 35R length 9001 ft width 150 ft
ILS 111.15 / hdg 5

(G) RW 36L length 12005 ft width 200 ft
---- / hdg 5

(H) RW 36R length 12005 ft width 200 ft
ILS 110.70 / hdg 5

Location; KMCO
Day. 21 / Time. 14.53 Zulu
* Altimeter: 30.11
* Temperature: 27° c. 80.6°f.
* Wind from: 000° Speed 00 kn.
Dewpoint: 23° c.
Visibility: 9 Statute Miles.
Clouds: Scattered 3500 ft.
Clouds: Broken 5000 ft.
Clouds: Broken 1000 ft.
Clouds: Broken 25000 ft.
Conditions: Towering CB.

KMCO 211453Z 00000KT 9SM SCT035TCU BKN050 BKN100 BKN250 27/23 A3011 RMK AO2 LTG DSNT E RAB38E51 SLP195 TCU OHD-W VCSH E W P0009 60009 T02720228 51014


Wind - Calm.

 
 
jpsmedia.com for Web Design worldairports.se 2018   terms of use